Time;durP1;ratioP1;P1;durP2;ratioP2;P2;SDS_P1;SDS_P2;PMS_P1;PMS_P2;Temp;Humidity;BMP_temperature;BMP_pressure;BME280_temperature;BME280_humidity;BME280_pressure;Samples;Min_cycle;Max_cycle;Signal;HPM_P1;HPM_P2
2023/05/02 00:01:55;;;;;;;5.20;2.75;;;;;;;14.40;60.91;100733.78;4163787;28;20506;-65
2023/05/02 00:03:58;;;;;;;3.30;2.50;;;;;;;14.41;61.84;100736.41;4146460;28;20042;-64
2023/05/02 00:06:01;;;;;;;4.07;2.80;;;;;;;14.40;60.93;100741.63;4147132;28;20053;-64
2023/05/02 00:08:05;;;;;;;4.15;2.53;;;;;;;14.32;61.16;100739.88;4146504;28;20069;-64
2023/05/02 00:10:09;;;;;;;3.70;2.65;;;;;;;14.32;61.55;100733.75;4164158;28;20445;-64
2023/05/02 00:12:11;;;;;;;4.27;3.00;;;;;;;14.28;61.72;100737.22;4156594;28;20068;-64
2023/05/02 00:14:15;;;;;;;3.42;2.55;;;;;;;14.25;61.45;100735.47;4157154;28;20575;-64
2023/05/02 00:16:18;;;;;;;3.63;2.90;;;;;;;14.20;61.90;100734.56;4164022;28;20045;-64
2023/05/02 00:18:22;;;;;;;4.15;2.90;;;;;;;14.13;61.71;100730.19;4146958;28;20076;-64
2023/05/02 00:20:26;;;;;;;2.95;2.35;;;;;;;14.13;62.21;100732.81;4162693;28;20557;-64
2023/05/02 00:22:28;;;;;;;5.20;2.67;;;;;;;14.10;61.73;100736.28;4163732;28;20137;-64
2023/05/02 00:24:31;;;;;;;3.45;2.45;;;;;;;14.02;62.21;100737.09;4146958;28;20038;-64
2023/05/02 00:26:34;;;;;;;3.53;2.55;;;;;;;13.96;61.86;100736.22;4146859;28;20041;-64
2023/05/02 00:28:37;;;;;;;2.88;2.40;;;;;;;13.91;61.41;100737.94;4164949;28;20045;-64
2023/05/02 00:30:44;;;;;;;3.00;2.60;;;;;;;13.89;61.74;100734.44;4147277;28;20120;-64
2023/05/02 00:32:47;;;;;;;5.50;2.63;;;;;;;13.79;61.95;100738.75;4161740;28;20038;-64
2023/05/02 00:34:49;;;;;;;3.60;2.67;;;;;;;13.81;61.61;100743.97;4161020;28;20087;-64
2023/05/02 00:36:52;;;;;;;5.03;2.78;;;;;;;13.82;61.67;100745.75;4162523;28;20040;-64
2023/05/02 00:38:55;;;;;;;3.50;2.42;;;;;;;13.84;61.17;100750.97;4146268;28;20630;-64
2023/05/02 00:40:58;;;;;;;3.67;2.63;;;;;;;13.82;61.03;100744.88;4160965;28;20076;-64
2023/05/02 00:43:01;;;;;;;3.60;3.20;;;;;;;13.78;60.36;100746.59;4145263;28;20500;-64
2023/05/02 00:45:05;;;;;;;2.95;2.25;;;;;;;13.78;60.85;100749.19;4137931;28;20089;-65
2023/05/02 00:47:10;;;;;;;;;;;;;;;13.68;60.91;100745.66;4141751;28;20034;-64
2023/05/02 00:49:13;;;;;;;2.88;2.13;;;;;;;13.71;60.78;100740.47;4144930;28;20008;-64
2023/05/02 00:51:16;;;;;;;2.95;2.25;;;;;;;13.82;60.92;100750.09;4118097;28;20390;-64
2023/05/02 00:53:19;;;;;;;3.60;2.28;;;;;;;13.82;61.05;100742.25;4161645;28;20048;-65
2023/05/02 00:55:22;;;;;;;3.40;2.75;;;;;;;13.83;60.92;100742.25;4141232;28;20042;-64
2023/05/02 00:57:25;;;;;;;3.35;2.17;;;;;;;13.83;60.83;100737.03;4123152;28;20537;-64
2023/05/02 00:59:28;;;;;;;3.25;2.45;;;;;;;13.86;60.50;100741.41;4136002;28;20042;-64
2023/05/02 01:01:41;;;;;;;2.63;2.30;;;;;;;13.83;60.77;100744.88;4136295;28;20057;-64
2023/05/02 01:04:03;;;;;;;7.20;2.47;;;;;;;13.77;61.12;100742.25;4146348;28;20041;-64
2023/05/02 01:06:19;;;;;;;2.85;2.17;;;;;;;13.69;60.53;100754.38;4140994;28;20046;-64
2023/05/02 01:08:34;;;;;;;5.72;2.63;;;;;;;13.63;60.88;100751.72;4143856;28;20073;-64
2023/05/02 01:10:47;;;;;;;;;;;;;;;13.52;61.59;100757.75;4158045;28;20061;-64
2023/05/02 01:12:58;;;;;;;4.53;2.20;;;;;;;13.56;62.42;100756.88;4127871;28;19921;-64
2023/05/02 01:15:05;;;;;;;3.08;2.35;;;;;;;13.53;62.69;100750.78;4161375;28;20395;-64
2023/05/02 01:17:12;;;;;;;3.78;2.60;;;;;;;13.55;63.32;100756.88;4141455;28;20046;-65
2023/05/02 01:19:25;;;;;;;3.47;2.40;;;;;;;13.53;63.68;100762.09;4161168;28;20484;-64
2023/05/02 01:21:28;;;;;;;4.45;2.67;;;;;;;13.50;63.15;100763.84;4144529;28;20069;-64
2023/05/02 01:23:40;;;;;;;4.63;2.60;;;;;;;13.43;62.71;100765.50;4142045;28;20038;-64
2023/05/02 01:25:59;;;;;;;3.03;2.60;;;;;;;13.29;62.76;100762.78;4141139;28;20038;-64
2023/05/02 01:28:16;;;;;;;3.08;2.42;;;;;;;13.23;62.25;100771.44;4138867;28;20042;-63
2023/05/02 01:30:22;;;;;;;4.05;2.72;;;;;;;13.10;62.80;100769.59;4144363;28;20049;-64
2023/05/02 01:32:27;;;;;;;3.28;2.58;;;;;;;13.08;62.76;100771.28;4137203;28;20463;-63
2023/05/02 01:34:31;;;;;;;;;;;;;;;13.03;63.08;100778.22;4161226;28;20034;-63
2023/05/02 01:36:36;;;;;;;3.45;2.60;;;;;;;13.03;63.06;100779.06;4158214;28;19925;-64
2023/05/02 01:38:42;;;;;;;3.70;2.80;;;;;;;13.07;62.96;100774.78;4162048;28;20065;-64
2023/05/02 01:40:47;;;;;;;4.35;2.42;;;;;;;13.07;62.97;100783.47;4135465;28;20128;-63
2023/05/02 01:42:54;;;;;;;5.82;2.67;;;;;;;13.09;62.75;100783.47;4148825;28;20132;-64
2023/05/02 01:44:59;;;;;;;4.00;2.75;;;;;;;13.09;62.62;100780.88;4139934;28;20117;-64
2023/05/02 01:47:07;;;;;;;3.45;2.78;;;;;;;13.16;62.76;100785.28;4143019;28;20042;-63
2023/05/02 01:49:10;;;;;;;4.00;2.83;;;;;;;13.15;62.79;100790.50;4140851;28;20038;-64
2023/05/02 01:51:17;;;;;;;4.72;2.60;;;;;;;13.09;62.43;100792.19;4146195;28;20042;-64
2023/05/02 01:53:21;;;;;;;3.55;3.03;;;;;;;13.07;62.34;100790.44;4153034;28;20041;-63
2023/05/02 01:55:25;;;;;;;4.70;3.50;;;;;;;13.08;62.34;100797.38;4116738;28;20129;-63
2023/05/02 01:57:28;;;;;;;4.32;2.88;;;;;;;13.04;62.41;100803.44;4145739;28;20034;-64
2023/05/02 01:59:34;;;;;;;3.70;3.03;;;;;;;13.01;62.37;100800.78;4144212;28;20080;-63
2023/05/02 02:01:38;;;;;;;4.57;3.40;;;;;;;13.01;62.00;100816.44;4145053;28;20096;-64
2023/05/02 02:03:43;;;;;;;5.70;3.65;;;;;;;13.02;61.94;100799.94;4145374;28;20499;-64
2023/05/02 02:05:49;;;;;;;3.15;2.75;;;;;;;12.97;62.30;100796.44;4159637;28;20487;-64
2023/05/02 02:07:52;;;;;;;3.60;2.90;;;;;;;13.00;62.14;100804.28;4128493;28;20524;-64
2023/05/02 02:09:55;;;;;;;4.30;3.13;;;;;;;12.99;62.20;100810.34;4141177;28;20041;-64
2023/05/02 02:12:05;;;;;;;4.35;3.42;;;;;;;12.99;62.09;100810.34;4144788;28;20042;-64
2023/05/02 02:14:14;;;;;;;4.00;3.05;;;;;;;12.93;62.44;100817.25;4146793;28;20052;-64
2023/05/02 02:16:24;;;;;;;5.07;3.53;;;;;;;12.89;62.50;100819.81;4145117;28;20034;-64
2023/05/02 02:18:29;;;;;;;4.00;2.92;;;;;;;12.84;62.63;100825.00;4162298;28;20411;-64
2023/05/02 02:20:33;;;;;;;;;;;;;;;12.77;63.05;100822.31;4162309;28;20042;-64
2023/05/02 02:22:39;;;;;;;6.20;3.55;;;;;;;12.74;63.14;100829.22;4161238;28;19921;-64
2023/05/02 02:24:45;;;;;;;6.00;3.97;;;;;;;12.79;62.91;100829.31;4138060;28;20038;-64
2023/05/02 02:26:48;;;;;;;7.13;4.05;;;;;;;12.80;62.81;100833.63;4138666;28;20628;-64
2023/05/02 02:28:51;;;;;;;4.43;3.60;;;;;;;12.79;62.73;100844.06;4132066;28;20038;-64
2023/05/02 02:30:55;;;;;;;4.63;3.50;;;;;;;12.79;62.30;100839.75;4144581;28;20463;-64
2023/05/02 02:32:58;;;;;;;5.40;3.63;;;;;;;12.76;62.48;100834.47;4134963;28;20042;-64
2023/05/02 02:35:02;;;;;;;4.30;3.90;;;;;;;12.71;62.66;100837.03;4143921;28;20038;-64
2023/05/02 02:37:11;;;;;;;5.38;3.75;;;;;;;12.74;62.80;100846.63;4144754;28;20096;-64
2023/05/02 02:39:25;;;;;;;4.60;3.47;;;;;;;12.72;62.98;100845.75;4144712;28;20034;-64
2023/05/02 02:41:33;;;;;;;6.13;3.75;;;;;;;12.77;62.57;100845.78;4145013;28;20044;-64
2023/05/02 02:43:44;;;;;;;4.82;3.67;;;;;;;12.73;63.02;100848.38;4144425;28;20496;-64
2023/05/02 02:45:55;;;;;;;5.47;3.78;;;;;;;12.71;62.93;100847.47;4144090;28;20044;-64
2023/05/02 02:48:07;;;;;;;5.40;3.45;;;;;;;12.72;63.46;100853.56;4134728;28;20077;-64
2023/05/02 02:50:16;;;;;;;5.20;4.30;;;;;;;12.75;63.03;100851.00;4154507;28;20038;-64
2023/05/02 02:52:32;;;;;;;5.28;4.15;;;;;;;12.76;63.04;100850.09;4140691;28;20128;-64
2023/05/02 02:54:38;;;;;;;;;;;;;;;12.62;63.23;100859.53;4142040;28;20045;-64
2023/05/02 02:56:45;;;;;;;7.78;4.82;;;;;;;12.64;62.98;100856.06;4160856;28;19921;-64
2023/05/02 02:58:55;;;;;;;5.93;4.40;;;;;;;12.69;63.14;100857.00;4139898;28;20052;-64
2023/05/02 03:01:02;;;;;;;5.65;4.28;;;;;;;12.67;63.16;100850.88;4133126;28;20033;-64
2023/05/02 03:03:07;;;;;;;7.15;4.63;;;;;;;12.70;62.97;100847.44;4140559;28;20093;-64
2023/05/02 03:05:10;;;;;;;;;;;;;;;12.58;63.66;100850.78;4128790;28;20086;-64
2023/05/02 03:07:14;;;;;;;8.23;5.45;;;;;;;12.58;63.59;100856.84;4133522;28;19922;-64
2023/05/02 03:09:18;;;;;;;6.13;4.88;;;;;;;12.61;63.65;100860.38;4144586;28;20092;-64
2023/05/02 03:11:23;;;;;;;6.63;4.82;;;;;;;12.59;63.83;100865.59;4140265;28;20045;-65
2023/05/02 03:13:26;;;;;;;6.80;4.55;;;;;;;12.58;63.50;100866.44;4160445;28;20084;-64
2023/05/02 03:16:00;;;;;;;6.05;4.18;;;;;;;12.56;63.85;100868.16;4143596;28;20198;-64
2023/05/02 03:18:05;;;;;;;6.68;5.63;;;;;;;12.52;63.69;100867.22;4155606;28;20120;-64
2023/05/02 03:20:09;;;;;;;9.15;5.00;;;;;;;12.50;63.81;100868.94;4128949;28;20090;-64
2023/05/02 03:22:12;;;;;;;7.22;4.82;;;;;;;12.48;63.78;100878.47;4161813;28;20052;-64
2023/05/02 03:24:15;;;;;;;8.50;6.78;;;;;;;12.43;63.63;100877.53;4142399;28;20069;-64
2023/05/02 03:26:22;;;;;;;8.10;6.50;;;;;;;12.42;63.73;100886.22;4147949;28;20045;-64
2023/05/02 03:28:25;;;;;;;8.70;6.30;;;;;;;12.33;63.86;100886.09;4147750;28;20042;-64
2023/05/02 03:30:28;;;;;;;8.02;6.50;;;;;;;12.32;64.46;100889.56;4131594;28;20053;-64
2023/05/02 03:32:31;;;;;;;8.07;6.78;;;;;;;12.36;64.03;100887.00;4141897;28;20041;-64
2023/05/02 03:34:34;;;;;;;7.18;6.30;;;;;;;12.38;63.47;100887.03;4147848;28;20049;-64
2023/05/02 03:36:37;;;;;;;9.80;7.05;;;;;;;12.37;63.21;100893.13;4147685;28;20599;-64
2023/05/02 03:38:40;;;;;;;10.68;7.60;;;;;;;12.39;63.38;100892.25;4147503;28;20034;-64
2023/05/02 03:40:46;;;;;;;8.65;6.68;;;;;;;12.41;63.38;100902.72;4147737;28;20397;-63
2023/05/02 03:42:51;;;;;;;8.43;7.00;;;;;;;12.42;63.50;100895.78;4147127;28;20107;-64
2023/05/02 03:45:00;;;;;;;7.20;5.82;;;;;;;12.42;63.45;100895.78;4164704;28;20513;-64
2023/05/02 03:47:03;;;;;;;8.63;7.10;;;;;;;12.43;63.28;100895.81;4146229;28;20529;-63
2023/05/02 03:49:12;;;;;;;7.03;6.22;;;;;;;12.43;63.64;100903.63;4143769;28;20066;-64
2023/05/02 03:51:18;;;;;;;7.68;6.57;;;;;;;12.43;64.26;100903.63;4127300;28;20552;-64
2023/05/02 03:53:25;;;;;;;9.25;7.88;;;;;;;12.43;64.33;100907.97;4145287;28;20511;-64
2023/05/02 03:55:32;;;;;;;9.00;6.97;;;;;;;12.43;64.54;100907.97;4146692;28;20034;-64
2023/05/02 03:57:35;;;;;;;8.68;7.18;;;;;;;12.36;64.49;100909.59;4146835;28;20042;-64
2023/05/02 03:59:41;;;;;;;10.95;8.63;;;;;;;12.37;64.37;100913.97;4162689;28;20088;-64
2023/05/02 04:01:52;;;;;;;9.30;7.88;;;;;;;12.35;64.34;100921.78;4140477;28;20057;-64
2023/05/02 04:04:01;;;;;;;10.27;8.40;;;;;;;12.34;63.69;100922.63;4147061;28;20610;-64
2023/05/02 04:06:09;;;;;;;12.73;9.25;;;;;;;12.38;63.50;100920.91;4142927;28;20034;-64
2023/05/02 04:08:12;;;;;;;11.75;10.55;;;;;;;12.46;63.35;100932.34;4163866;28;20107;-64
2023/05/02 04:10:17;;;;;;;13.30;11.07;;;;;;;12.44;62.78;100939.28;4130822;28;20070;-64
2023/05/02 04:12:26;;;;;;;11.43;9.82;;;;;;;12.35;63.19;100936.53;4152251;28;20069;-64
2023/05/02 04:14:29;;;;;;;14.25;9.85;;;;;;;12.41;63.41;100939.22;4147048;28;20432;-64
2023/05/02 04:16:34;;;;;;;13.32;11.18;;;;;;;12.38;63.33;100937.47;4146249;28;20038;-64
2023/05/02 04:18:37;;;;;;;12.82;11.30;;;;;;;12.42;63.42;100943.59;4146832;28;20054;-65
2023/05/02 04:20:43;;;;;;;11.68;9.73;;;;;;;12.31;63.33;100950.34;4162834;28;20144;-64
2023/05/02 04:22:48;;;;;;;12.93;8.77;;;;;;;12.32;63.69;100958.19;4156104;28;20093;-64
2023/05/02 04:24:52;;;;;;;14.25;12.75;;;;;;;12.38;63.56;100967.84;4146783;28;20049;-64
2023/05/02 04:26:54;;;;;;;12.60;10.25;;;;;;;12.38;63.46;100966.13;4141065;28;20050;-64
2023/05/02 04:28:57;;;;;;;12.00;10.68;;;;;;;12.39;63.95;100974.81;4146886;28;20030;-64
2023/05/02 04:31:02;;;;;;;14.00;12.50;;;;;;;12.45;63.63;100967.09;4150278;28;20037;-64
2023/05/02 04:33:08;;;;;;;17.35;13.70;;;;;;;12.51;63.09;100976.72;4158727;28;20499;-64
2023/05/02 04:35:14;;;;;;;14.80;12.98;;;;;;;12.47;63.38;100973.22;4158484;28;20049;-64
2023/05/02 04:37:17;;;;;;;17.25;14.10;;;;;;;12.46;63.49;100974.06;4143438;28;20412;-64
2023/05/02 04:39:21;;;;;;;18.38;15.27;;;;;;;12.57;63.14;100980.31;4130013;28;20043;-64
2023/05/02 04:41:37;;;;;;;15.45;13.80;;;;;;;12.43;63.67;100988.81;4146316;28;20222;-65
2023/05/02 04:43:42;;;;;;;17.20;13.55;;;;;;;12.39;63.82;100993.94;4136451;28;20033;-64
2023/05/02 04:45:45;;;;;;;15.32;13.50;;;;;;;12.38;64.08;100988.72;4143669;28;20124;-64
2023/05/02 04:47:55;;;;;;;19.52;14.63;;;;;;;12.40;63.84;100989.63;4144937;28;20034;-65
2023/05/02 04:49:59;;;;;;;16.20;13.50;;;;;;;12.36;64.47;100995.66;4146953;28;20034;-64
2023/05/02 04:52:03;;;;;;;16.65;14.88;;;;;;;12.50;64.08;100996.75;4163533;28;20101;-64
2023/05/02 04:54:07;;;;;;;16.42;14.73;;;;;;;12.48;64.01;101000.16;4145713;28;20464;-64
2023/05/02 04:56:11;;;;;;;18.65;16.25;;;;;;;12.51;64.23;101001.09;4146225;28;20042;-64
2023/05/02 04:58:14;;;;;;;15.55;13.93;;;;;;;12.52;63.95;101002.84;4146318;28;20048;-64
2023/05/02 05:00:19;;;;;;;17.17;14.95;;;;;;;12.50;64.19;101001.06;4160879;28;20495;-64
2023/05/02 05:02:22;;;;;;;20.20;17.40;;;;;;;12.58;64.13;101007.28;4145746;28;20129;-64
2023/05/02 05:04:25;;;;;;;20.80;16.50;;;;;;;12.67;64.04;101011.75;4146432;28;20128;-64
2023/05/02 05:06:30;;;;;;;19.80;17.70;;;;;;;12.70;64.15;101007.47;4146661;28;20038;-65
2023/05/02 05:08:34;;;;;;;22.88;18.23;;;;;;;12.77;64.02;101017.97;4145550;28;20132;-64
2023/05/02 05:10:39;;;;;;;21.35;19.15;;;;;;;12.99;63.01;101019.16;4144427;28;20041;-64
2023/05/02 05:12:43;;;;;;;22.52;18.13;;;;;;;12.91;63.03;101019.91;4165964;22;20068;-68
2023/05/02 05:14:46;;;;;;;25.00;20.65;;;;;;;12.88;63.25;101019.88;4146497;28;20037;-68
2023/05/02 05:16:49;;;;;;;24.63;19.98;;;;;;;12.90;63.02;101036.41;4146027;28;20503;-67
2023/05/02 05:18:52;;;;;;;20.45;17.88;;;;;;;12.80;63.66;101028.47;4145799;28;20057;-67
2023/05/02 05:20:55;;;;;;;21.90;19.60;;;;;;;12.92;63.30;101029.50;4145791;28;20121;-68
2023/05/02 05:22:59;;;;;;;24.45;21.20;;;;;;;12.94;63.46;101026.91;4120696;28;20105;-67
2023/05/02 05:25:02;;;;;;;24.60;20.27;;;;;;;12.91;63.58;101037.31;4114111;28;20504;-68
2023/05/02 05:27:06;;;;;;;21.48;18.05;;;;;;;12.93;63.56;101046.91;4129944;28;20073;-68
2023/05/02 05:29:10;;;;;;;23.48;20.50;;;;;;;13.00;63.37;101041.78;4129955;28;20046;-68
2023/05/02 05:31:16;;;;;;;27.75;23.50;;;;;;;13.04;63.25;101044.47;4129930;28;20034;-68
2023/05/02 05:33:22;;;;;;;26.30;23.42;;;;;;;13.05;63.44;101051.44;4129551;28;20048;-67
2023/05/02 05:35:26;;;;;;;25.67;22.85;;;;;;;13.15;63.10;101057.63;4129882;28;20038;-68
2023/05/02 05:37:30;;;;;;;29.30;23.50;;;;;;;13.01;63.57;101053.97;4129592;28;20030;-68
2023/05/02 05:39:36;;;;;;;28.15;24.67;;;;;;;13.02;63.60;101069.66;4129917;28;20532;-68
2023/05/02 05:41:40;;;;;;;29.10;23.67;;;;;;;13.03;64.09;101067.94;4129581;28;20035;-68
2023/05/02 05:43:45;;;;;;;33.28;28.05;;;;;;;13.07;63.63;101067.13;4128884;28;20058;-68
2023/05/02 05:45:48;;;;;;;34.60;29.98;;;;;;;13.17;63.40;101070.72;4129551;28;20042;-68
2023/05/02 05:47:53;;;;;;;47.28;32.92;;;;;;;13.21;63.50;101076.00;4115479;28;20077;-68
2023/05/02 05:49:58;;;;;;;35.30;28.05;;;;;;;13.05;63.68;101080.16;4113265;28;20508;-68
2023/05/02 05:52:04;;;;;;;40.20;32.20;;;;;;;12.90;64.54;101075.56;4112965;28;20412;-68
2023/05/02 05:54:08;;;;;;;36.42;30.88;;;;;;;13.03;64.10;101081.84;4128910;28;20054;-67
2023/05/02 05:56:13;;;;;;;40.63;32.35;;;;;;;13.00;64.67;101086.16;4129462;28;20048;-67
2023/05/02 05:58:22;;;;;;;44.95;35.90;;;;;;;13.14;64.30;101082.00;4130400;28;20073;-68
2023/05/02 06:00:27;;;;;;;;;;;;;;;13.19;64.25;101082.94;4129848;28;20579;-68
2023/05/02 06:02:30;;;;;;;38.70;31.52;;;;;;;13.20;64.08;101084.69;4112652;28;19926;-67
2023/05/02 06:04:33;;;;;;;45.25;35.65;;;;;;;13.45;63.75;101082.44;4112781;28;20053;-68
2023/05/02 06:06:36;;;;;;;41.13;34.60;;;;;;;13.34;64.02;101086.63;4129109;28;20471;-68
2023/05/02 06:08:39;;;;;;;41.03;33.65;;;;;;;13.38;64.10;101085.84;4129239;28;20109;-67
2023/05/02 06:10:42;;;;;;;40.17;33.83;;;;;;;13.46;64.21;101091.16;4112864;28;20053;-67
2023/05/02 06:12:46;;;;;;;51.55;37.90;;;;;;;13.69;64.10;101091.44;4145296;28;20048;-68
2023/05/02 06:14:53;;;;;;;40.17;32.67;;;;;;;13.74;63.40;101094.94;4128945;28;20133;-68
2023/05/02 06:16:58;;;;;;;49.35;41.65;;;;;;;13.84;63.26;101099.41;4144488;28;20038;-68
2023/05/02 06:19:02;;;;;;;43.45;36.50;;;;;;;13.78;64.08;101104.59;4129262;28;20126;-68
2023/05/02 06:21:06;;;;;;;50.03;41.25;;;;;;;13.80;63.38;101102.88;4128893;28;20040;-68
2023/05/02 06:23:08;;;;;;;48.05;40.45;;;;;;;13.75;63.37;101099.31;4128150;28;20048;-68
2023/05/02 06:25:11;;;;;;;60.85;47.35;;;;;;;13.88;63.14;101109.06;4128733;28;20038;-68
2023/05/02 06:27:15;;;;;;;51.33;43.15;;;;;;;13.82;63.21;101102.91;4129819;28;20556;-67
2023/05/02 06:29:19;;;;;;;50.85;43.90;;;;;;;13.70;64.16;101103.63;4112835;28;20050;-68
2023/05/02 06:31:22;;;;;;;59.65;46.92;;;;;;;13.82;63.35;101111.59;4129723;28;20413;-68
2023/05/02 06:33:25;;;;;;;62.40;49.35;;;;;;;13.94;62.83;101117.00;4129461;28;20042;-68
2023/05/02 06:35:28;;;;;;;59.42;47.72;;;;;;;13.93;62.26;101120.44;4130490;28;20046;-68
2023/05/02 06:37:34;;;;;;;58.03;45.13;;;;;;;13.93;62.82;101122.16;4130522;28;20413;-68
2023/05/02 06:39:37;;;;;;;51.22;43.78;;;;;;;13.89;63.58;101123.03;4128583;28;20843;-68
2023/05/02 06:41:40;;;;;;;59.35;46.85;;;;;;;13.96;63.19;101128.31;4129590;28;20173;-68
2023/05/02 06:43:48;;;;;;;65.03;53.67;;;;;;;14.21;62.33;101118.13;4128409;28;20125;-68
2023/05/02 06:45:55;;;;;;;62.45;50.33;;;;;;;14.18;62.67;101131.19;4129300;28;20100;-68
2023/05/02 06:47:58;;;;;;;54.45;43.67;;;;;;;14.16;62.65;101130.25;4129564;28;20389;-67
2023/05/02 06:50:00;;;;;;;56.92;48.70;;;;;;;14.16;62.28;101129.41;4129741;28;20046;-68
2023/05/02 06:52:04;;;;;;;58.63;49.50;;;;;;;14.33;62.53;101130.44;4129498;28;20034;-68
2023/05/02 06:54:07;;;;;;;52.25;41.05;;;;;;;14.42;62.51;101132.25;4129436;28;20048;-68
2023/05/02 06:56:11;;;;;;;70.90;55.97;;;;;;;14.74;60.43;101132.56;4129576;28;20073;-68
2023/05/02 06:58:14;;;;;;;62.38;50.72;;;;;;;14.73;60.78;101137.78;4129010;28;20495;-68
2023/05/02 07:00:18;;;;;;;60.60;52.20;;;;;;;14.65;60.81;101140.34;4144077;28;20054;-68
2023/05/02 07:02:23;;;;;;;59.50;49.58;;;;;;;14.64;60.74;101139.47;4129423;28;20497;-68
2023/05/02 07:04:26;;;;;;;60.30;51.00;;;;;;;14.53;61.18;101141.09;4128221;28;20129;-68
2023/05/02 07:06:29;;;;;;;60.58;51.50;;;;;;;14.62;61.12;101150.81;4129659;28;20449;-68
2023/05/02 07:08:32;;;;;;;64.67;51.90;;;;;;;14.62;61.06;101142.94;4129659;28;20073;-68
2023/05/02 07:10:35;;;;;;;67.40;55.25;;;;;;;14.56;61.12;101148.97;4144263;28;20566;-68
2023/05/02 07:12:39;;;;;;;63.65;51.95;;;;;;;14.67;60.60;101146.47;4129198;28;20129;-68
2023/05/02 07:14:42;;;;;;;58.67;50.27;;;;;;;14.70;60.20;101148.25;4123209;28;20152;-67
2023/05/02 07:16:44;;;;;;;60.88;49.47;;;;;;;14.84;59.80;101146.63;4144500;28;20148;-68
2023/05/02 07:18:49;;;;;;;53.75;44.08;;;;;;;14.88;60.19;101143.16;4129953;28;20097;-68
2023/05/02 07:20:52;;;;;;;61.03;47.40;;;;;;;15.09;58.96;101149.41;4129251;28;20484;-68
2023/05/02 07:22:55;;;;;;;50.70;43.65;;;;;;;15.16;58.77;101131.13;4144716;28;20515;-68
2023/05/02 07:24:58;;;;;;;61.30;45.13;;;;;;;15.33;57.44;101146.94;4129311;28;20038;-68
2023/05/02 07:27:02;;;;;;;52.30;42.50;;;;;;;15.41;57.78;101148.72;4128106;28;20531;-68
2023/05/02 07:29:05;;;;;;;52.13;43.50;;;;;;;15.25;57.24;101148.63;4126095;28;20030;-68
2023/05/02 07:31:08;;;;;;;56.17;45.97;;;;;;;15.07;57.80;101156.34;4129294;28;20559;-68
2023/05/02 07:33:11;;;;;;;56.53;44.17;;;;;;;14.93;58.76;101154.53;4128990;28;20075;-68
2023/05/02 07:35:15;;;;;;;55.05;44.08;;;;;;;14.90;58.62;101166.72;4129054;28;20038;-67
2023/05/02 07:37:18;;;;;;;51.08;40.42;;;;;;;14.83;58.16;101153.59;4129681;28;20057;-68
2023/05/02 07:39:21;;;;;;;58.63;45.85;;;;;;;15.00;59.33;101158.94;4127929;28;20507;-67
2023/05/02 07:41:24;;;;;;;46.05;37.72;;;;;;;14.95;59.45;101152.81;4128712;28;20129;-68
2023/05/02 07:43:28;;;;;;;52.58;43.33;;;;;;;15.03;57.97;101152.00;4127155;28;20043;-68
2023/05/02 07:45:31;;;;;;;51.65;43.80;;;;;;;15.23;57.24;101160.84;4128271;28;20061;-68
2023/05/02 07:47:34;;;;;;;45.20;38.33;;;;;;;15.17;58.16;101160.78;4125710;28;20124;-68
2023/05/02 07:49:37;;;;;;;45.75;38.85;;;;;;;15.44;56.42;101159.22;4134371;28;20136;-68
2023/05/02 07:51:44;;;;;;;43.95;37.10;;;;;;;15.51;56.57;101158.38;4129768;28;20049;-68
2023/05/02 07:53:50;;;;;;;48.35;41.30;;;;;;;15.50;56.06;101161.88;4126943;28;20546;-68
2023/05/02 07:55:53;;;;;;;48.95;41.38;;;;;;;15.59;55.90;101164.53;4134661;28;20034;-68
2023/05/02 07:57:56;;;;;;;44.97;36.85;;;;;;;15.58;55.61;101161.91;4135537;28;20045;-67
2023/05/02 07:59:59;;;;;;;50.05;40.55;;;;;;;15.64;55.28;101167.19;4125817;28;20038;-68
2023/05/02 08:02:02;;;;;;;49.33;38.63;;;;;;;15.63;55.86;101161.06;4129194;28;20053;-68
2023/05/02 08:04:05;;;;;;;42.83;35.10;;;;;;;15.59;55.46;101164.53;4143767;28;20033;-67
2023/05/02 08:06:08;;;;;;;43.78;38.17;;;;;;;15.81;55.14;101169.91;4126130;28;20523;-68
2023/05/02 08:08:13;;;;;;;50.78;37.45;;;;;;;15.92;54.01;101168.22;4128580;28;20046;-68
2023/05/02 08:10:16;;;;;;;48.05;39.55;;;;;;;15.97;54.65;101170.84;4136080;28;20049;-68
2023/05/02 08:12:18;;;;;;;48.15;39.95;;;;;;;16.01;53.77;101173.47;4129766;28;20039;-68
2023/05/02 08:14:21;;;;;;;48.13;40.72;;;;;;;16.07;54.60;101171.75;4131029;28;20081;-68
2023/05/02 08:16:24;;;;;;;50.97;42.38;;;;;;;15.99;54.28;101175.22;4132724;28;20121;-68
2023/05/02 08:18:36;;;;;;;46.17;37.53;;;;;;;16.13;54.42;101182.25;4132007;28;20097;-69
2023/05/02 08:20:39;;;;;;;50.80;41.45;;;;;;;16.27;53.70;101183.16;4132099;28;20092;-68
2023/05/02 08:22:42;;;;;;;44.20;37.40;;;;;;;16.19;53.71;101182.25;4131516;28;20048;-68
2023/05/02 08:24:46;;;;;;;44.45;34.63;;;;;;;16.23;53.41;101184.03;4130629;28;20046;-68
2023/05/02 08:26:49;;;;;;;37.45;30.95;;;;;;;16.37;51.81;101182.31;4130570;28;20034;-67
2023/05/02 08:28:53;;;;;;;42.67;36.90;;;;;;;16.21;53.17;101188.41;4114712;28;20054;-68
2023/05/02 08:30:56;;;;;;;44.47;35.83;;;;;;;16.11;52.65;101194.50;4129762;28;20126;-70
2023/05/02 08:32:59;;;;;;;47.30;37.92;;;;;;;15.96;53.62;101196.19;4145874;28;20041;-70
2023/05/02 08:35:02;;;;;;;43.83;36.55;;;;;;;15.93;53.87;101195.28;4131594;28;20042;-70
2023/05/02 08:37:08;;;;;;;42.08;34.28;;;;;;;16.12;53.45;101191.88;4130713;28;20039;-70
2023/05/02 08:39:11;;;;;;;48.85;38.13;;;;;;;16.36;52.99;101195.44;4133049;28;20041;-70
2023/05/02 08:41:16;;;;;;;46.22;37.92;;;;;;;16.37;53.75;101192.81;4134096;28;20038;-70
2023/05/02 08:43:19;;;;;;;48.70;41.00;;;;;;;16.64;53.27;101195.47;4131878;28;20034;-70
2023/05/02 08:45:23;;;;;;;51.38;40.28;;;;;;;16.52;53.57;101197.22;4129868;28;20042;-70
2023/05/02 08:47:29;;;;;;;46.33;39.03;;;;;;;16.38;53.45;101204.19;4132370;28;20045;-70
2023/05/02 08:49:32;;;;;;;48.58;38.63;;;;;;;16.46;53.26;101197.19;4133312;28;20046;-69
2023/05/02 08:51:37;;;;;;;46.15;37.97;;;;;;;16.55;53.69;101199.84;4141483;28;20045;-69
2023/05/02 08:53:43;;;;;;;50.13;39.72;;;;;;;16.70;52.87;101191.09;4125193;28;20508;-69
2023/05/02 08:55:48;;;;;;;41.60;33.80;;;;;;;16.70;52.76;101196.34;4132378;28;20453;-70
2023/05/02 08:57:54;;;;;;;43.60;33.60;;;;;;;16.82;51.99;101202.47;4110953;28;20290;-69
2023/05/02 08:59:57;;;;;;;41.65;34.20;;;;;;;16.70;51.85;101201.59;4130010;28;20065;-70
2023/05/02 09:02:11;;;;;;;42.72;34.35;;;;;;;16.45;52.64;101219.06;4129725;28;20490;-69
2023/05/02 09:04:15;;;;;;;38.80;32.28;;;;;;;16.32;52.33;101220.78;4143194;28;20042;-69
2023/05/02 09:06:19;;;;;;;36.63;29.52;;;;;;;16.11;53.23;101223.34;4141927;28;20422;-69
2023/05/02 09:08:23;;;;;;;34.85;27.98;;;;;;;15.90;54.13;101214.50;4129357;28;20046;-68
2023/05/02 09:10:28;;;;;;;37.80;32.17;;;;;;;16.00;53.30;101231.16;4129596;28;20041;-69
2023/05/02 09:12:31;;;;;;;41.30;33.22;;;;;;;15.95;53.13;101227.66;4129687;28;20100;-69
2023/05/02 09:14:35;;;;;;;37.95;32.30;;;;;;;15.78;54.15;101225.81;4131743;28;20412;-69
2023/05/02 09:16:39;;;;;;;44.47;34.28;;;;;;;15.79;54.87;101230.19;4132627;28;20089;-69
2023/05/02 09:18:44;;;;;;;38.70;33.10;;;;;;;15.77;55.52;101238.88;4131000;28;20042;-68
2023/05/02 09:20:47;;;;;;;43.35;34.35;;;;;;;16.02;55.19;101235.56;4142668;28;20038;-70
2023/05/02 09:22:52;;;;;;;42.00;32.40;;;;;;;16.14;54.32;101226.00;4128652;28;20097;-70
2023/05/02 09:24:55;;;;;;;;;;;;;;;16.16;54.13;101243.47;4111771;28;20043;-70
2023/05/02 09:26:59;;;;;;;41.75;31.48;;;;;;;15.95;54.42;101240.78;4130519;28;19928;-70
2023/05/02 09:29:04;;;;;;;35.05;30.15;;;;;;;15.82;55.82;101240.69;4130989;28;20050;-70
2023/05/02 09:31:09;;;;;;;36.90;29.63;;;;;;;15.74;55.14;101246.72;4129381;28;20559;-69
2023/05/02 09:33:26;;;;;;;34.92;26.85;;;;;;;15.61;56.11;101246.69;4130728;28;20460;-69
2023/05/02 09:35:29;;;;;;;34.10;29.13;;;;;;;15.74;55.69;101251.97;4130069;28;20074;-69